createdAt,value
2023-01-23T05:23:16.522Z,114.50
2023-01-23T05:36:51.164Z,129.05
2023-01-23T05:50:09.927Z,119.95
2023-01-23T05:53:21.707Z,269.98
2023-01-23T05:55:53.991Z,137.18
2023-01-23T06:02:44.365Z,285.88
2023-01-23T06:11:27.601Z,242.82
2023-01-23T06:14:02.626Z,302.98
2023-01-23T06:16:38.714Z,371.98
2023-01-23T06:19:23.426Z,205.15
2023-01-23T06:21:55.901Z,409.23
2023-01-23T06:24:54.408Z,267.00
2023-01-23T06:27:44.167Z,210.45
2023-01-23T06:30:16.090Z,181.10
2023-01-23T06:32:55.375Z,137.93
2023-01-23T06:35:27.177Z,290.05
2023-01-23T06:37:57.093Z,240.80
2023-01-23T06:44:19.973Z,150.80
2023-01-23T07:02:45.446Z,185.60
2023-01-23T07:05:33.384Z,200.82
2023-01-23T07:08:23.140Z,173.85
2023-01-23T07:11:01.862Z,151.88
2023-01-23T07:13:48.671Z,182.05
2023-01-23T07:23:12.140Z,333.75
2023-01-23T07:26:12.543Z,226.90
2023-01-23T07:33:03.827Z,292.52
2023-01-23T07:36:03.665Z,118.43
2023-01-23T07:38:55.198Z,143.90
2023-01-23T07:41:31.907Z,224.30
2023-01-23T07:44:07.275Z,258.02
2023-01-23T07:53:41.530Z,305.83
2023-01-23T07:56:15.440Z,140.23
2023-01-23T08:05:15.832Z,144.82
2023-01-23T08:07:50.993Z,97.28
2023-01-23T08:10:22.649Z,130.20
2023-01-23T08:13:58.625Z,164.30
2023-01-23T08:19:57.271Z,114.35
2023-01-23T08:22:50.860Z,240.25
2023-01-23T08:25:31.345Z,214.63
2023-01-23T08:28:20.605Z,161.65
2023-01-23T08:31:41.760Z,139.00
2023-01-23T08:37:14.419Z,135.05
2023-01-23T08:45:42.589Z,212.43
2023-01-23T08:54:38.900Z,196.70
2023-01-23T09:00:16.769Z,143.95
2023-01-23T09:34:19.755Z,235.70
2023-01-23T09:37:27.223Z,161.13
2023-01-23T09:46:37.633Z,268.65
2023-01-23T09:49:37.828Z,193.63
2023-01-23T09:52:21.100Z,113.28
2023-01-23T09:54:51.430Z,107.88
2023-01-23T09:57:32.660Z,68.35
2023-01-23T10:00:08.794Z,121.63
2023-01-23T10:03:14.471Z,179.02
2023-01-23T11:27:49.917Z,93.47
2023-01-23T13:41:47.938Z,187.27
2023-01-23T15:51:27.993Z,296.75
2023-01-23T15:57:43.788Z,296.75
2023-01-23T16:00:28.029Z,290.98
2023-01-23T16:03:05.065Z,353.15
2023-01-23T16:05:39.914Z,292.92
2023-01-23T16:08:25.881Z,402.63
2023-01-23T16:10:55.825Z,347.08
2023-01-23T16:13:28.669Z,323.05
2023-01-23T16:16:05.560Z,313.02
2023-01-23T16:19:00.380Z,435.83
2023-01-23T16:21:40.293Z,302.77
2023-01-23T16:24:22.392Z,332.77
2023-01-23T16:27:12.192Z,370.45
2023-01-23T16:33:02.011Z,343.23
2023-01-23T16:35:44.378Z,284.58
2023-01-23T16:38:24.655Z,439.60
2023-01-23T16:41:02.447Z,408.10
2023-01-23T16:43:34.776Z,348.30
2023-01-23T16:46:05.627Z,348.98
2023-01-23T16:48:40.047Z,348.40
2023-01-23T16:51:20.164Z,197.23
2023-01-23T16:53:56.799Z,238.90
2023-01-23T16:56:37.134Z,281.58
2023-01-23T16:59:42.178Z,188.77
2023-01-23T17:06:13.489Z,162.32
2023-01-23T17:09:12.887Z,149.10
2023-01-23T17:11:54.279Z,207.73
2023-01-23T17:15:08.838Z,150.05
2023-01-23T17:18:36.738Z,142.02
2023-01-23T17:21:49.497Z,117.35
2023-01-23T17:28:32.787Z,122.50
2023-01-23T17:31:29.613Z,122.47
2023-01-23T17:34:10.903Z,91.53
2023-01-23T17:36:51.477Z,115.93
2023-01-23T17:39:23.932Z,125.15
2023-01-23T17:41:55.546Z,98.65
2023-01-23T17:44:54.988Z,93.75
2023-01-23T17:47:45.474Z,95.68
2023-01-23T17:50:48.749Z,126.78
2023-01-23T17:53:34.870Z,103.65
2023-01-23T17:56:19.216Z,107.50
2023-01-23T17:58:54.065Z,103.22
2023-01-23T18:01:37.214Z,106.82
2023-01-23T18:04:35.815Z,100.97
2023-01-23T18:07:29.814Z,97.43
2023-01-23T18:14:41.638Z,139.00
2023-01-23T18:17:55.443Z,90.20
2023-01-23T18:21:05.359Z,95.95
2023-01-23T18:23:38.307Z,110.90
2023-01-23T18:26:27.474Z,109.18
2023-01-23T18:29:18.447Z,116.00
2023-01-23T18:32:08.672Z,194.85
2023-01-23T18:35:15.373Z,158.90
2023-01-23T18:38:07.310Z,214.18
2023-01-23T18:40:51.320Z,175.18
2023-01-23T18:43:38.839Z,155.30
2023-01-23T18:46:21.632Z,179.27
2023-01-23T18:49:47.330Z,185.23
2023-01-23T18:52:44.976Z,296.98
2023-01-23T18:56:11.571Z,243.48
2023-01-23T18:59:39.085Z,215.07
2023-01-23T19:02:49.158Z,205.75
2023-01-23T19:05:32.982Z,215.43
2023-01-23T19:08:19.690Z,129.38
2023-01-23T19:11:02.319Z,140.38
2023-01-23T19:13:48.623Z,135.50
2023-01-23T19:16:41.225Z,145.10
2023-01-23T19:19:40.497Z,136.40
2023-01-23T19:22:31.127Z,109.35
2023-01-23T19:25:00.688Z,110.20
2023-01-23T19:27:37.530Z,136.75
2023-01-23T19:30:12.624Z,163.85
2023-01-23T19:33:06.992Z,142.48
2023-01-23T19:35:40.569Z,125.35
2023-01-23T19:38:18.401Z,172.77
2023-01-23T19:41:50.914Z,143.57
2023-01-23T19:45:11.792Z,229.63
2023-01-23T19:47:43.629Z,190.82
2023-01-23T19:50:20.962Z,344.98
2023-01-23T19:53:20.240Z,183.35
2023-01-23T19:56:08.026Z,219.52
2023-01-23T19:58:41.034Z,190.18
2023-01-23T20:01:25.859Z,352.10
2023-01-23T20:03:57.376Z,263.48
2023-01-23T20:06:33.290Z,366.23
2023-01-23T20:09:35.446Z,356.42
2023-01-23T20:12:52.532Z,304.35
2023-01-23T20:15:54.145Z,150.95
2023-01-23T20:19:00.749Z,221.00
2023-01-23T20:22:20.777Z,368.23
2023-01-23T20:25:30.647Z,300.67
2023-01-23T20:28:15.982Z,446.55
2023-01-23T20:30:57.394Z,335.52
2023-01-23T20:33:30.478Z,153.73
2023-01-23T20:36:02.575Z,338.98
2023-01-23T20:39:02.935Z,246.65
2023-01-23T20:41:49.034Z,269.55
2023-01-23T20:44:30.974Z,307.58
2023-01-23T20:47:17.101Z,292.55
2023-01-23T20:50:27.180Z,323.90
2023-01-23T20:56:19.283Z,274.08
2023-01-23T21:02:15.137Z,264.67
2023-01-23T21:04:59.463Z,235.25
2023-01-23T21:07:45.486Z,337.83
2023-01-23T21:10:30.576Z,192.50
2023-01-23T21:13:16.438Z,211.70
2023-01-23T21:16:03.006Z,280.00
2023-01-23T21:19:11.216Z,315.02
2023-01-23T21:22:03.795Z,365.30
2023-01-23T21:24:47.085Z,276.77
2023-01-23T21:27:32.544Z,287.65
2023-01-23T21:30:16.623Z,333.30
2023-01-23T21:32:45.604Z,215.15
2023-01-23T21:35:15.786Z,248.85
2023-01-23T21:37:44.550Z,229.20
2023-01-23T21:40:29.607Z,169.60
2023-01-23T21:43:22.959Z,277.52
2023-01-23T21:46:18.433Z,274.17
2023-01-23T21:48:52.644Z,282.33
2023-01-23T21:51:36.801Z,354.20
2023-01-23T21:54:20.827Z,355.23
2023-01-23T21:56:55.211Z,253.75
2023-01-23T21:59:42.509Z,355.58
2023-01-23T22:02:45.510Z,358.58
2023-01-23T22:05:39.852Z,289.98
2023-01-23T22:08:44.284Z,367.58
2023-01-23T22:11:16.297Z,358.80
2023-01-23T22:13:48.067Z,302.80
2023-01-23T22:16:50.334Z,287.98
2023-01-23T22:22:53.586Z,339.42
2023-01-23T22:25:39.232Z,333.17
2023-01-23T22:30:51.060Z,412.00
2023-01-23T22:33:24.042Z,348.40
2023-01-23T22:35:59.775Z,467.95
2023-01-23T22:38:46.798Z,416.80
2023-01-23T22:44:56.885Z,265.73
2023-01-23T22:47:53.490Z,393.30
2023-01-23T22:50:25.925Z,308.60
2023-01-23T22:53:08.840Z,298.00
2023-01-23T22:55:39.993Z,319.85
2023-01-23T22:58:15.327Z,257.98
2023-01-23T23:00:46.035Z,276.08
2023-01-23T23:03:15.228Z,293.35
2023-01-23T23:06:24.554Z,407.95
2023-01-23T23:13:04.712Z,447.35
2023-01-23T23:15:59.222Z,266.77
2023-01-23T23:18:40.995Z,370.17
2023-01-23T23:21:19.090Z,354.58
2023-01-23T23:24:06.258Z,502.85
2023-01-23T23:26:38.292Z,535.05
2023-01-23T23:29:08.925Z,343.30
2023-01-23T23:31:47.734Z,388.42
2023-01-23T23:34:26.988Z,439.80
2023-01-23T23:37:08.935Z,396.15
2023-01-23T23:40:19.429Z,210.63
2023-01-23T23:46:12.280Z,369.13
2023-01-23T23:48:46.752Z,459.83
2023-01-23T23:51:45.598Z,310.95
2023-01-23T23:55:06.028Z,365.77
